createdAt,value
2017-02-02T00:00:08.049Z,0
2017-02-02T00:01:17.923Z,0
2017-02-02T00:02:28.592Z,0
2017-02-02T00:03:39.261Z,0
2017-02-02T00:04:49.929Z,0
2017-02-02T00:06:00.596Z,0
2017-02-02T00:07:10.868Z,0
2017-02-02T00:08:21.538Z,0
2017-02-02T00:09:32.220Z,0
2017-02-02T00:10:42.894Z,0
2017-02-02T00:11:53.570Z,0
2017-02-02T00:13:04.242Z,0
2017-02-02T00:14:14.905Z,0
2017-02-02T00:15:25.580Z,0
2017-02-02T00:16:36.247Z,0
2017-02-02T00:17:46.923Z,0
2017-02-02T00:18:57.592Z,0
2017-02-02T00:20:08.264Z,0
2017-02-02T00:21:18.938Z,0
2017-02-02T00:22:29.614Z,0
2017-02-02T00:23:40.283Z,0
2017-02-02T00:24:50.952Z,0
2017-02-02T00:26:01.627Z,0
2017-02-02T00:27:12.292Z,0
2017-02-02T00:28:22.961Z,0
2017-02-02T00:29:33.229Z,0
2017-02-02T00:30:43.901Z,0
2017-02-02T00:31:54.568Z,0
2017-02-02T00:33:05.243Z,0
2017-02-02T00:34:15.511Z,0
2017-02-02T00:35:26.184Z,0
2017-02-02T00:36:36.856Z,0
2017-02-02T00:37:47.597Z,0
2017-02-02T00:38:58.266Z,0
2017-02-02T00:40:08.934Z,0
2017-02-02T00:41:19.213Z,0
2017-02-02T00:42:29.884Z,0
2017-02-02T00:43:40.555Z,0
2017-02-02T00:44:51.217Z,0
2017-02-02T00:46:01.892Z,0
2017-02-02T00:47:12.571Z,0
2017-02-02T00:48:23.239Z,0
2017-02-02T00:49:33.907Z,0
2017-02-02T00:50:44.577Z,0
2017-02-02T00:51:55.247Z,0
2017-02-02T00:53:05.916Z,0
2017-02-02T00:54:16.590Z,0
2017-02-02T00:55:27.261Z,0
2017-02-02T00:56:37.929Z,0
2017-02-02T00:57:48.595Z,0
2017-02-02T00:58:59.260Z,0
2017-02-02T01:00:09.531Z,0
2017-02-02T01:01:19.806Z,0
2017-02-02T01:02:30.509Z,0
2017-02-02T01:03:41.211Z,0
2017-02-02T01:04:51.883Z,0
2017-02-02T01:06:02.549Z,0
2017-02-02T01:07:13.220Z,0
2017-02-02T01:08:23.491Z,0
2017-02-02T01:09:34.159Z,0
2017-02-02T01:10:44.835Z,0
2017-02-02T01:11:55.503Z,0
2017-02-02T01:13:06.170Z,0
2017-02-02T01:14:16.849Z,0
2017-02-02T01:15:27.126Z,0
2017-02-02T01:16:37.793Z,0
2017-02-02T01:17:48.461Z,0
2017-02-02T01:18:59.127Z,0
2017-02-02T01:20:09.803Z,0
2017-02-02T01:21:20.474Z,0
2017-02-02T01:22:31.143Z,0
2017-02-02T01:23:41.414Z,0
2017-02-02T01:24:52.082Z,0
2017-02-02T01:26:02.753Z,0
2017-02-02T01:27:13.023Z,0
2017-02-02T01:28:23.694Z,0
2017-02-02T01:29:34.361Z,0
2017-02-02T01:30:45.029Z,0
2017-02-02T01:31:55.706Z,0
2017-02-02T01:33:06.377Z,0
2017-02-02T01:34:17.084Z,0
2017-02-02T01:35:27.750Z,0
2017-02-02T01:36:38.021Z,0
2017-02-02T01:37:48.704Z,0
2017-02-02T01:38:59.376Z,0
2017-02-02T01:40:09.255Z,0
2017-02-02T01:41:19.930Z,0
2017-02-02T01:42:30.601Z,0
2017-02-02T01:43:41.280Z,0
2017-02-02T01:44:51.961Z,0
2017-02-02T01:46:02.628Z,0
2017-02-02T01:47:13.298Z,0
2017-02-02T01:48:23.966Z,0
2017-02-02T01:49:34.633Z,0
2017-02-02T01:50:45.305Z,0
2017-02-02T01:51:55.975Z,0
2017-02-02T01:53:06.644Z,0
2017-02-02T01:54:16.915Z,0
2017-02-02T01:55:27.589Z,0
2017-02-02T01:56:38.254Z,0
2017-02-02T01:57:48.924Z,0
2017-02-02T01:58:59.593Z,0
2017-02-02T02:00:09.469Z,0
2017-02-02T02:01:19.740Z,0
2017-02-02T02:02:30.412Z,0
2017-02-02T02:03:41.083Z,0
2017-02-02T02:04:51.755Z,0
2017-02-02T02:06:02.430Z,0
2017-02-02T02:07:13.101Z,0
2017-02-02T02:08:22.980Z,0
2017-02-02T02:09:33.254Z,0
2017-02-02T02:10:43.928Z,0
2017-02-02T02:11:54.601Z,0
2017-02-02T02:13:05.268Z,0
2017-02-02T02:14:15.541Z,0
2017-02-02T02:15:26.212Z,0
2017-02-02T02:16:36.883Z,0
2017-02-02T02:17:47.555Z,0
2017-02-02T02:18:58.225Z,0
2017-02-02T02:20:08.490Z,0
2017-02-02T02:21:18.761Z,0
2017-02-02T02:22:29.434Z,0
2017-02-02T02:23:40.099Z,0
2017-02-02T02:24:50.768Z,0
2017-02-02T02:26:01.435Z,0
2017-02-02T02:27:11.705Z,0
2017-02-02T02:28:21.976Z,0
2017-02-02T02:29:32.649Z,0
2017-02-02T02:30:43.316Z,0
2017-02-02T02:31:53.984Z,0
2017-02-02T02:33:04.653Z,0
2017-02-02T02:34:14.563Z,0
2017-02-02T02:35:24.438Z,0
2017-02-02T02:36:35.107Z,0
2017-02-02T02:37:45.775Z,0
2017-02-02T02:38:56.444Z,0
2017-02-02T02:40:07.112Z,0
2017-02-02T02:41:17.816Z,0
2017-02-02T02:42:28.484Z,0
2017-02-02T02:43:39.150Z,0
2017-02-02T02:44:49.819Z,0
2017-02-02T02:46:00.484Z,0
2017-02-02T02:47:11.157Z,0
2017-02-02T02:48:21.825Z,0
2017-02-02T02:49:32.498Z,0
2017-02-02T02:50:43.169Z,0
2017-02-02T02:51:53.845Z,0
2017-02-02T02:53:04.514Z,0
2017-02-02T02:54:15.182Z,0
2017-02-02T02:55:25.845Z,0
2017-02-02T02:56:36.514Z,0
2017-02-02T02:57:47.191Z,0
2017-02-02T02:58:57.890Z,0
2017-02-02T03:00:08.166Z,0
2017-02-02T03:01:18.841Z,0
2017-02-02T03:02:29.117Z,0
2017-02-02T03:03:39.783Z,0
2017-02-02T03:04:50.453Z,0
2017-02-02T03:06:01.128Z,0
2017-02-02T03:07:11.801Z,0
2017-02-02T03:08:22.467Z,0
2017-02-02T03:09:33.143Z,0
2017-02-02T03:10:43.418Z,0
2017-02-02T03:11:54.105Z,0
2017-02-02T03:13:04.778Z,0
2017-02-02T03:14:15.483Z,0
2017-02-02T03:15:26.152Z,0
2017-02-02T03:16:36.819Z,0
2017-02-02T03:17:47.492Z,0
2017-02-02T03:18:58.161Z,0
2017-02-02T03:20:08.854Z,0
2017-02-02T03:21:19.126Z,0
2017-02-02T03:22:29.798Z,0
2017-02-02T03:23:40.819Z,0
2017-02-02T03:24:51.497Z,0
2017-02-02T03:26:02.165Z,0
2017-02-02T03:27:12.436Z,0
2017-02-02T03:28:23.104Z,0
2017-02-02T03:29:33.774Z,0
2017-02-02T03:30:44.444Z,0
2017-02-02T03:31:55.110Z,0
2017-02-02T03:33:05.798Z,0
2017-02-02T03:34:16.476Z,0
2017-02-02T03:35:27.145Z,0
2017-02-02T03:36:37.812Z,0
2017-02-02T03:37:48.493Z,0
2017-02-02T03:38:59.160Z,0
2017-02-02T03:40:09.431Z,0
2017-02-02T03:41:20.126Z,0
2017-02-02T03:42:30.828Z,0
2017-02-02T03:43:41.497Z,0
2017-02-02T03:44:52.172Z,0
2017-02-02T03:46:02.841Z,0
2017-02-02T03:47:12.716Z,0
2017-02-02T03:48:22.989Z,0
2017-02-02T03:49:33.260Z,0
2017-02-02T03:50:43.929Z,0
2017-02-02T03:51:54.598Z,0
2017-02-02T03:53:05.272Z,0
2017-02-02T03:54:15.948Z,0
2017-02-02T03:55:26.611Z,0
2017-02-02T03:56:37.281Z,0
2017-02-02T03:57:47.951Z,0
2017-02-02T03:58:58.225Z,0
2017-02-02T04:00:08.929Z,0
2017-02-02T04:01:19.599Z,0
2017-02-02T04:02:30.261Z,0
2017-02-02T04:03:40.928Z,0
2017-02-02T04:04:51.631Z,0
2017-02-02T04:06:02.295Z,0
2017-02-02T04:07:12.965Z,0
2017-02-02T04:08:23.630Z,0
2017-02-02T04:09:34.297Z,0
2017-02-02T04:10:44.991Z,0
2017-02-02T04:11:55.655Z,0
2017-02-02T04:13:06.326Z,0
2017-02-02T04:14:16.598Z,0
2017-02-02T04:15:27.263Z,0
2017-02-02T04:16:38.031Z,0
2017-02-02T04:17:48.701Z,0
2017-02-02T04:18:59.370Z,0
2017-02-02T04:20:09.647Z,0
2017-02-02T04:21:20.315Z,0
2017-02-02T04:22:30.589Z,0
2017-02-02T04:23:41.259Z,0
2017-02-02T04:24:51.936Z,0
2017-02-02T04:26:02.607Z,0
2017-02-02T04:27:13.272Z,0
2017-02-02T04:28:23.943Z,0
2017-02-02T04:29:34.613Z,0
2017-02-02T04:30:45.284Z,0
2017-02-02T04:31:55.953Z,0
2017-02-02T04:33:06.620Z,0
2017-02-02T04:34:17.292Z,0
2017-02-02T04:35:27.966Z,0
2017-02-02T04:36:38.634Z,0
2017-02-02T04:37:49.301Z,0
2017-02-02T04:38:59.963Z,0
2017-02-02T04:40:10.629Z,0
2017-02-02T04:41:21.302Z,0
2017-02-02T04:42:31.974Z,0
2017-02-02T04:43:42.650Z,0
2017-02-02T04:44:53.318Z,0
2017-02-02T04:46:03.989Z,0
2017-02-02T04:47:14.655Z,0
2017-02-02T04:48:25.325Z,0
2017-02-02T04:49:36.041Z,0
2017-02-02T04:50:46.721Z,0
2017-02-02T04:51:57.390Z,0
2017-02-02T04:53:08.061Z,0
2017-02-02T04:54:18.332Z,0
2017-02-02T04:55:29.003Z,0
2017-02-02T04:56:39.673Z,0
2017-02-02T04:57:50.374Z,0
2017-02-02T04:59:01.044Z,0
2017-02-02T05:00:11.318Z,0
2017-02-02T05:01:21.984Z,0
2017-02-02T05:02:32.656Z,0
2017-02-02T05:03:43.324Z,0
2017-02-02T05:04:53.993Z,0
2017-02-02T05:06:04.667Z,0
2017-02-02T05:07:15.340Z,0
2017-02-02T05:08:26.006Z,0
2017-02-02T05:09:36.283Z,0
2017-02-02T05:10:46.953Z,0
2017-02-02T05:11:57.634Z,0
2017-02-02T05:13:08.299Z,0
2017-02-02T05:14:18.572Z,0
2017-02-02T05:15:29.238Z,0
2017-02-02T05:16:39.903Z,0
2017-02-02T05:17:50.570Z,0
2017-02-02T05:19:01.242Z,0
2017-02-02T05:20:11.941Z,0
2017-02-02T05:21:22.610Z,0
2017-02-02T05:22:33.282Z,0
2017-02-02T05:23:43.956Z,0
2017-02-02T05:24:54.659Z,0
2017-02-02T05:26:05.329Z,0
2017-02-02T05:27:15.600Z,0
2017-02-02T05:28:25.872Z,0
2017-02-02T05:29:36.534Z,0
2017-02-02T05:30:46.811Z,0
2017-02-02T05:31:57.473Z,0
2017-02-02T05:33:08.147Z,0
2017-02-02T05:34:18.416Z,0
2017-02-02T05:35:29.096Z,0
2017-02-02T05:36:39.766Z,0
2017-02-02T05:37:50.436Z,0
2017-02-02T05:39:01.108Z,0
2017-02-02T05:40:11.779Z,0
2017-02-02T05:41:22.452Z,0
2017-02-02T05:42:33.161Z,0
2017-02-02T05:43:43.829Z,0
2017-02-02T05:44:54.501Z,0
2017-02-02T05:46:05.167Z,0
2017-02-02T05:47:15.436Z,0
2017-02-02T05:48:26.104Z,0
2017-02-02T05:49:36.770Z,0
2017-02-02T05:50:47.439Z,0
2017-02-02T05:51:58.106Z,0
2017-02-02T05:53:08.776Z,0
2017-02-02T05:54:19.450Z,0
2017-02-02T05:55:30.123Z,0
2017-02-02T05:56:40.791Z,0
2017-02-02T05:57:51.462Z,0
2017-02-02T05:59:02.137Z,0
2017-02-02T06:00:12.410Z,0
2017-02-02T06:01:23.076Z,0
2017-02-02T06:02:32.955Z,0
2017-02-02T06:03:43.633Z,0
2017-02-02T06:04:54.306Z,0
2017-02-02T06:06:04.977Z,0
2017-02-02T06:07:15.246Z,0
2017-02-02T06:08:25.912Z,0
2017-02-02T06:09:36.583Z,0
2017-02-02T06:10:47.250Z,0
2017-02-02T06:11:57.918Z,0
2017-02-02T06:13:08.583Z,0
2017-02-02T06:14:19.266Z,0
2017-02-02T06:15:29.928Z,0
2017-02-02T06:16:40.595Z,0
2017-02-02T06:17:51.267Z,0
2017-02-02T06:19:01.936Z,0
2017-02-02T06:20:12.232Z,0
2017-02-02T06:21:22.904Z,0
2017-02-02T06:22:33.569Z,0
2017-02-02T06:23:44.235Z,0
2017-02-02T06:24:54.911Z,0
2017-02-02T06:26:05.586Z,0
2017-02-02T06:27:15.458Z,0
2017-02-02T06:28:25.727Z,0
2017-02-02T06:29:36.398Z,0
2017-02-02T06:30:47.074Z,0
2017-02-02T06:31:57.746Z,0
2017-02-02T06:33:08.022Z,0
2017-02-02T06:34:18.698Z,0
2017-02-02T06:35:29.367Z,0
2017-02-02T06:36:40.033Z,0
2017-02-02T06:37:50.702Z,0
2017-02-02T06:39:01.368Z,0
2017-02-02T06:40:12.032Z,0
2017-02-02T06:41:22.701Z,0
2017-02-02T06:42:33.369Z,0
2017-02-02T06:43:44.445Z,0
2017-02-02T06:44:55.186Z,0
2017-02-02T06:46:05.858Z,4
2017-02-02T06:47:16.132Z,4
2017-02-02T06:48:26.814Z,0
2017-02-02T06:49:37.484Z,0
2017-02-02T06:50:48.157Z,4
2017-02-02T06:51:58.832Z,0
2017-02-02T06:53:09.501Z,4
2017-02-02T06:54:20.165Z,4
2017-02-02T06:55:30.437Z,4
2017-02-02T06:56:41.103Z,8
2017-02-02T06:57:51.779Z,8
2017-02-02T06:59:02.449Z,4
2017-02-02T07:00:13.120Z,8
2017-02-02T07:01:23.794Z,8
2017-02-02T07:02:34.489Z,12
2017-02-02T07:03:45.164Z,12
2017-02-02T07:04:55.836Z,12
2017-02-02T07:06:06.502Z,16
2017-02-02T07:07:16.780Z,16
2017-02-02T07:08:27.448Z,16
2017-02-02T07:09:37.719Z,24
2017-02-02T07:10:48.390Z,24
2017-02-02T07:11:59.090Z,28
2017-02-02T07:13:09.757Z,32
2017-02-02T07:14:20.424Z,40
2017-02-02T07:15:31.092Z,40
2017-02-02T07:16:41.757Z,44
2017-02-02T07:17:52.426Z,52
2017-02-02T07:19:03.118Z,60
2017-02-02T07:20:12.994Z,64
2017-02-02T07:21:23.661Z,76
2017-02-02T07:22:33.943Z,84
2017-02-02T07:23:44.609Z,92
2017-02-02T07:24:55.276Z,96
2017-02-02T07:26:05.946Z,100
2017-02-02T07:27:16.615Z,112
2017-02-02T07:28:27.294Z,120
2017-02-02T07:29:37.968Z,124
2017-02-02T07:30:48.634Z,132
2017-02-02T07:31:59.302Z,144
2017-02-02T07:33:09.970Z,152
2017-02-02T07:34:20.641Z,160
2017-02-02T07:35:31.308Z,164
2017-02-02T07:36:41.978Z,180
2017-02-02T07:37:52.655Z,192
2017-02-02T07:39:03.322Z,204
2017-02-02T07:40:13.994Z,216
2017-02-02T07:41:24.915Z,232
2017-02-02T07:42:35.582Z,244
2017-02-02T07:43:46.255Z,252
2017-02-02T07:44:56.923Z,260
2017-02-02T07:46:07.588Z,288
2017-02-02T07:47:17.859Z,292
2017-02-02T07:48:28.539Z,304
2017-02-02T07:49:38.826Z,328
2017-02-02T07:50:49.491Z,332
2017-02-02T07:52:00.166Z,352
2017-02-02T07:53:10.833Z,368
2017-02-02T07:54:21.505Z,388
2017-02-02T07:55:32.203Z,400
2017-02-02T07:56:42.885Z,396
2017-02-02T07:57:53.549Z,416
2017-02-02T07:59:04.215Z,428
2017-02-02T08:00:14.885Z,428
2017-02-02T08:01:25.563Z,436
2017-02-02T08:02:35.836Z,440
2017-02-02T08:03:46.111Z,464
2017-02-02T08:04:56.775Z,488
2017-02-02T08:06:07.051Z,488
2017-02-02T08:07:17.746Z,508
2017-02-02T08:08:28.412Z,548
2017-02-02T08:09:39.089Z,580
2017-02-02T08:10:49.758Z,604
2017-02-02T08:12:00.426Z,628
2017-02-02T08:13:11.099Z,648
2017-02-02T08:14:21.761Z,672
2017-02-02T08:15:32.429Z,696
2017-02-02T08:16:43.102Z,728
2017-02-02T08:17:53.779Z,736
2017-02-02T08:19:04.445Z,744
2017-02-02T08:20:15.113Z,772
2017-02-02T08:21:25.788Z,772
2017-02-02T08:22:36.456Z,800
2017-02-02T08:23:47.123Z,784
2017-02-02T08:24:57.788Z,828
2017-02-02T08:26:08.068Z,868
2017-02-02T08:27:18.739Z,884
2017-02-02T08:28:29.412Z,888
2017-02-02T08:29:40.082Z,956
2017-02-02T08:30:50.763Z,944
2017-02-02T08:32:01.430Z,944
2017-02-02T08:33:12.105Z,968
2017-02-02T08:34:22.774Z,984
2017-02-02T08:35:33.452Z,1048
2017-02-02T08:36:44.122Z,1040
2017-02-02T08:37:54.787Z,1120
2017-02-02T08:39:05.490Z,1088
2017-02-02T08:40:15.762Z,1096
2017-02-02T08:41:26.434Z,1152
2017-02-02T08:42:37.110Z,1144
2017-02-02T08:43:47.785Z,1228
2017-02-02T08:44:58.457Z,1280
2017-02-02T08:46:09.134Z,1260
2017-02-02T08:47:19.410Z,1276
2017-02-02T08:48:30.078Z,1312
2017-02-02T08:49:40.350Z,1340
2017-02-02T08:50:51.030Z,1352
2017-02-02T08:52:01.701Z,1316
2017-02-02T08:53:12.382Z,1308
2017-02-02T08:54:23.055Z,1400
2017-02-02T08:55:33.728Z,1348
2017-02-02T08:56:44.002Z,1360
2017-02-02T08:57:54.685Z,1460
2017-02-02T08:59:05.361Z,1536
2017-02-02T09:00:16.035Z,1612
2017-02-02T09:01:26.706Z,1688
2017-02-02T09:02:37.398Z,1676
2017-02-02T09:03:48.070Z,1648
2017-02-02T09:04:58.740Z,1724
2017-02-02T09:06:09.414Z,1748
2017-02-02T09:07:19.706Z,1728
2017-02-02T09:08:30.389Z,1744
2017-02-02T09:09:41.061Z,1808
2017-02-02T09:10:51.735Z,1824
2017-02-02T09:12:02.406Z,1788
2017-02-02T09:13:12.675Z,1792
2017-02-02T09:14:23.347Z,1792
2017-02-02T09:15:34.017Z,1792
2017-02-02T09:16:44.689Z,1800
2017-02-02T09:17:55.364Z,1780
2017-02-02T09:19:06.039Z,1760
2017-02-02T09:20:16.349Z,1756
2017-02-02T09:21:27.022Z,1672
2017-02-02T09:22:37.693Z,1556
2017-02-02T09:23:48.365Z,1364
2017-02-02T09:24:59.036Z,1420
2017-02-02T09:26:09.705Z,1488
2017-02-02T09:27:20.372Z,1596
2017-02-02T09:28:31.046Z,1780
2017-02-02T09:29:41.715Z,1864
2017-02-02T09:30:52.387Z,1840
2017-02-02T09:32:03.064Z,1876
2017-02-02T09:33:13.735Z,1832
2017-02-02T09:34:24.410Z,1772
2017-02-02T09:35:35.081Z,1760
2017-02-02T09:36:45.758Z,1760
2017-02-02T09:37:56.437Z,1716
2017-02-02T09:39:07.136Z,1768
2017-02-02T09:40:17.808Z,1808
2017-02-02T09:41:28.479Z,1848
2017-02-02T09:42:39.157Z,1828
2017-02-02T09:43:49.829Z,1776
2017-02-02T09:45:00.107Z,1756
2017-02-02T09:46:10.384Z,1716
2017-02-02T09:47:20.665Z,1872
2017-02-02T09:48:31.346Z,2112
2017-02-02T09:49:42.023Z,2200
2017-02-02T09:50:52.697Z,2172
2017-02-02T09:52:03.377Z,2272
2017-02-02T09:53:14.056Z,2332
2017-02-02T09:54:24.781Z,2308
2017-02-02T09:55:35.454Z,2348
2017-02-02T09:56:46.165Z,2396
2017-02-02T09:57:56.838Z,2476
2017-02-02T09:59:07.510Z,2576
2017-02-02T10:00:18.180Z,2540
2017-02-02T10:01:28.853Z,2512
2017-02-02T10:02:39.524Z,2508
2017-02-02T10:03:50.196Z,2644
2017-02-02T10:05:00.867Z,2796
2017-02-02T10:06:11.142Z,2824
2017-02-02T10:07:21.829Z,2756
2017-02-02T10:08:32.508Z,2872
2017-02-02T10:09:43.186Z,3108
2017-02-02T10:10:53.864Z,3096
2017-02-02T10:12:04.533Z,3092
2017-02-02T10:13:14.815Z,2996
2017-02-02T10:14:25.498Z,3028
2017-02-02T10:15:36.170Z,3060
2017-02-02T10:16:46.442Z,2980
2017-02-02T10:17:57.144Z,3080
2017-02-02T10:19:07.820Z,3152
2017-02-02T10:20:17.695Z,3116
2017-02-02T10:21:28.370Z,3048
2017-02-02T10:22:39.046Z,3064
2017-02-02T10:23:49.722Z,2984
2017-02-02T10:25:00.421Z,2812
2017-02-02T10:26:09.905Z,2756
2017-02-02T10:27:20.608Z,2612
2017-02-02T10:28:31.551Z,2752
2017-02-02T10:29:42.245Z,2900
2017-02-02T10:30:52.935Z,3136
2017-02-02T10:32:03.770Z,3392
2017-02-02T10:33:14.081Z,3304
2017-02-02T10:34:24.755Z,3232
2017-02-02T10:35:35.426Z,3316
2017-02-02T10:36:45.704Z,3400
2017-02-02T10:37:56.040Z,3332
2017-02-02T10:39:06.715Z,3272
2017-02-02T10:40:17.396Z,3340
2017-02-02T10:41:28.075Z,3300
2017-02-02T10:42:38.796Z,3228
2017-02-02T10:43:48.677Z,3136
2017-02-02T10:44:59.347Z,3156
2017-02-02T10:46:09.627Z,3084
2017-02-02T10:47:20.310Z,3120
2017-02-02T10:48:30.989Z,3056
2017-02-02T10:49:41.663Z,2964
2017-02-02T10:50:52.339Z,2940
2017-02-02T10:52:03.014Z,2868
2017-02-02T10:53:13.686Z,2800
2017-02-02T10:54:24.360Z,2736
2017-02-02T10:55:35.037Z,2740
2017-02-02T10:56:45.709Z,2880
2017-02-02T10:57:56.388Z,2860
2017-02-02T10:59:07.064Z,2900
2017-02-02T11:00:17.337Z,2944
2017-02-02T11:01:28.013Z,2944
2017-02-02T11:02:38.687Z,2888
2017-02-02T11:03:49.356Z,2904
2017-02-02T11:05:00.026Z,2888
2017-02-02T11:06:10.312Z,2936
2017-02-02T11:07:21.088Z,2932
2017-02-02T11:08:31.761Z,2864
2017-02-02T11:09:42.434Z,2896
2017-02-02T11:10:53.104Z,2888
2017-02-02T11:12:03.809Z,2852
2017-02-02T11:13:14.084Z,2884
2017-02-02T11:14:24.762Z,3000
2017-02-02T11:15:35.440Z,2944
2017-02-02T11:16:45.318Z,2836
2017-02-02T11:17:55.991Z,2712
2017-02-02T11:19:06.668Z,2800
2017-02-02T11:20:16.951Z,2804
2017-02-02T11:21:27.649Z,2744
2017-02-02T11:22:38.328Z,2704
2017-02-02T11:23:49.008Z,2648
2017-02-02T11:24:59.680Z,2552
2017-02-02T11:26:09.958Z,2488
2017-02-02T11:27:20.634Z,2480
2017-02-02T11:28:31.307Z,2472
2017-02-02T11:29:41.986Z,2524
2017-02-02T11:30:52.660Z,2532
2017-02-02T11:32:03.339Z,2528
2017-02-02T11:33:14.016Z,2500
2017-02-02T11:34:24.699Z,2492
2017-02-02T11:35:35.373Z,2564
2017-02-02T11:36:46.047Z,2676
2017-02-02T11:37:56.718Z,2864
2017-02-02T11:39:07.392Z,3016
2017-02-02T11:40:18.062Z,3068
2017-02-02T11:41:28.732Z,3112
2017-02-02T11:42:39.013Z,3156
2017-02-02T11:43:49.687Z,3420
2017-02-02T11:45:00.363Z,3544
2017-02-02T11:46:11.039Z,3652
2017-02-02T11:47:21.715Z,3688
2017-02-02T11:48:32.412Z,3632
2017-02-02T11:49:43.087Z,3668
2017-02-02T11:50:53.764Z,3852
2017-02-02T11:52:04.458Z,3776
2017-02-02T11:53:15.134Z,3836
2017-02-02T11:54:25.809Z,4052
2017-02-02T11:55:36.492Z,4196
2017-02-02T11:56:47.172Z,4396
2017-02-02T11:57:57.869Z,4288
2017-02-02T11:59:08.544Z,4296
2017-02-02T12:00:18.818Z,4184
2017-02-02T12:01:29.488Z,3968
2017-02-02T12:02:40.194Z,3724
2017-02-02T12:03:50.471Z,3868
2017-02-02T12:05:01.153Z,4044
2017-02-02T12:06:11.836Z,3940
2017-02-02T12:07:22.514Z,4076
2017-02-02T12:08:33.187Z,4232
2017-02-02T12:09:43.858Z,4356
2017-02-02T12:10:54.138Z,4232
2017-02-02T12:12:04.814Z,4100
2017-02-02T12:13:15.096Z,4048
2017-02-02T12:14:25.778Z,4140
2017-02-02T12:15:36.448Z,4320
2017-02-02T12:16:46.727Z,4284
2017-02-02T12:17:57.394Z,4296
2017-02-02T12:19:08.070Z,4004
2017-02-02T12:20:18.353Z,3988
2017-02-02T12:21:29.033Z,3924
2017-02-02T12:22:39.715Z,3824
2017-02-02T12:23:50.392Z,3720
2017-02-02T12:25:01.064Z,3692
2017-02-02T12:26:10.543Z,3604
2017-02-02T12:27:21.219Z,3444
2017-02-02T12:28:31.893Z,3428
2017-02-02T12:29:42.568Z,3272
2017-02-02T12:30:52.853Z,3056
2017-02-02T12:32:03.563Z,2880
2017-02-02T12:33:14.242Z,2840
2017-02-02T12:34:24.918Z,2856
2017-02-02T12:35:35.595Z,2892
2017-02-02T12:36:46.270Z,2892
2017-02-02T12:37:56.555Z,2792
2017-02-02T12:39:07.243Z,2712
2017-02-02T12:40:17.919Z,2736
2017-02-02T12:41:28.598Z,2688
2017-02-02T12:42:39.271Z,2616
2017-02-02T12:43:49.955Z,2548
2017-02-02T12:45:00.630Z,2516
2017-02-02T12:46:10.525Z,2476
2017-02-02T12:47:21.198Z,2520
2017-02-02T12:48:31.872Z,2568
2017-02-02T12:49:42.151Z,2628
2017-02-02T12:50:52.431Z,2608
2017-02-02T12:52:03.107Z,2708
2017-02-02T12:53:13.782Z,2784
2017-02-02T12:54:24.457Z,2816
2017-02-02T12:55:34.733Z,2928
2017-02-02T12:56:45.412Z,2956
2017-02-02T12:57:56.081Z,2840
2017-02-02T12:59:06.759Z,2752
2017-02-02T13:00:17.435Z,2868
2017-02-02T13:01:28.121Z,2832
2017-02-02T13:02:38.795Z,2772
2017-02-02T13:03:49.498Z,2688
2017-02-02T13:05:00.172Z,2632
2017-02-02T13:06:10.463Z,2624
2017-02-02T13:07:20.745Z,2612
2017-02-02T13:08:31.417Z,2600
2017-02-02T13:09:42.123Z,2576
2017-02-02T13:10:52.796Z,2584
2017-02-02T13:12:03.473Z,2536
2017-02-02T13:13:13.756Z,2436
2017-02-02T13:14:24.430Z,2372
2017-02-02T13:15:35.126Z,2284
2017-02-02T13:16:45.799Z,2216
2017-02-02T13:17:56.072Z,2176
2017-02-02T13:19:06.344Z,2164
2017-02-02T13:20:17.016Z,2168
2017-02-02T13:21:27.691Z,2124
2017-02-02T13:22:38.386Z,2136
2017-02-02T13:23:49.075Z,2092
2017-02-02T13:24:59.777Z,2012
2017-02-02T13:26:10.092Z,2008
2017-02-02T13:27:20.799Z,2008
2017-02-02T13:28:31.073Z,2068
2017-02-02T13:29:41.756Z,2020
2017-02-02T13:30:52.036Z,1984
2017-02-02T13:32:02.706Z,1968
2017-02-02T13:33:12.985Z,1952
2017-02-02T13:34:23.264Z,1908
2017-02-02T13:35:33.944Z,1856
2017-02-02T13:36:44.619Z,1804
2017-02-02T13:37:54.904Z,1720
2017-02-02T13:39:05.583Z,1652
2017-02-02T13:40:15.071Z,1584
2017-02-02T13:41:25.742Z,1548
2017-02-02T13:42:36.417Z,1500
2017-02-02T13:43:47.095Z,1428
2017-02-02T13:44:57.771Z,1364
2017-02-02T13:46:08.444Z,1324
2017-02-02T13:47:18.323Z,1312
2017-02-02T13:48:29.000Z,1296
2017-02-02T13:49:39.695Z,1248
2017-02-02T13:50:50.379Z,1212
2017-02-02T13:52:01.060Z,1168
2017-02-02T13:53:11.734Z,1144
2017-02-02T13:54:22.408Z,1140
2017-02-02T13:55:33.085Z,1124
2017-02-02T13:56:43.793Z,1100
2017-02-02T13:57:54.070Z,1080
2017-02-02T13:59:04.752Z,1064
2017-02-02T14:00:15.429Z,1064
2017-02-02T14:01:26.104Z,1072
2017-02-02T14:02:36.813Z,1068
2017-02-02T14:03:47.492Z,1076
2017-02-02T14:04:58.168Z,1084
2017-02-02T14:06:08.846Z,1092
2017-02-02T14:07:19.521Z,1120
2017-02-02T14:08:30.197Z,1148
2017-02-02T14:09:40.875Z,1172
2017-02-02T14:10:51.543Z,1176
2017-02-02T14:12:02.219Z,1160
2017-02-02T14:13:12.499Z,1148
2017-02-02T14:14:23.176Z,1120
2017-02-02T14:15:33.851Z,1108
2017-02-02T14:16:44.539Z,1112
2017-02-02T14:17:54.816Z,1112
2017-02-02T14:19:05.534Z,1120
2017-02-02T14:20:15.813Z,1124
2017-02-02T14:21:26.496Z,1124
2017-02-02T14:22:37.175Z,1112
2017-02-02T14:23:47.451Z,1112
2017-02-02T14:24:58.131Z,1116
2017-02-02T14:26:08.810Z,1116
2017-02-02T14:27:19.089Z,1108
2017-02-02T14:28:29.760Z,1080
2017-02-02T14:29:40.436Z,1056
2017-02-02T14:30:51.112Z,1028
2017-02-02T14:32:01.396Z,1000
2017-02-02T14:33:12.082Z,964
2017-02-02T14:34:22.760Z,928
2017-02-02T14:35:33.440Z,896
2017-02-02T14:36:44.125Z,864
2017-02-02T14:37:54.803Z,836
2017-02-02T14:39:05.484Z,812
2017-02-02T14:40:16.158Z,780
2017-02-02T14:41:26.831Z,760
2017-02-02T14:42:37.502Z,732
2017-02-02T14:43:48.180Z,708
2017-02-02T14:44:58.855Z,692
2017-02-02T14:46:09.132Z,676
2017-02-02T14:47:19.416Z,660
2017-02-02T14:48:30.101Z,648
2017-02-02T14:49:40.384Z,624
2017-02-02T14:50:51.059Z,608
2017-02-02T14:52:01.740Z,592
2017-02-02T14:53:12.449Z,576
2017-02-02T14:54:23.127Z,552
2017-02-02T14:55:33.834Z,536
2017-02-02T14:56:44.515Z,532
2017-02-02T14:57:54.002Z,532
2017-02-02T14:59:04.285Z,528
2017-02-02T15:00:14.197Z,528
2017-02-02T15:01:24.899Z,524
2017-02-02T15:02:35.577Z,508
2017-02-02T15:03:46.301Z,488
2017-02-02T15:04:57.011Z,464
2017-02-02T15:06:07.687Z,448
2017-02-02T15:07:17.963Z,436
2017-02-02T15:08:28.633Z,424
2017-02-02T15:09:39.303Z,404
2017-02-02T15:10:49.980Z,392
2017-02-02T15:12:00.662Z,380
2017-02-02T15:13:11.338Z,368
2017-02-02T15:14:22.013Z,352
2017-02-02T15:15:32.686Z,332
2017-02-02T15:16:43.362Z,308
2017-02-02T15:17:54.033Z,292
2017-02-02T15:19:04.716Z,272
2017-02-02T15:20:15.422Z,256
2017-02-02T15:21:26.095Z,240
2017-02-02T15:22:36.766Z,220
2017-02-02T15:23:47.048Z,200
2017-02-02T15:24:57.326Z,184
2017-02-02T15:26:08.000Z,168
2017-02-02T15:27:18.276Z,148
2017-02-02T15:28:28.945Z,132
2017-02-02T15:29:38.830Z,120
2017-02-02T15:30:49.500Z,108
2017-02-02T15:32:00.175Z,100
2017-02-02T15:33:10.457Z,88
2017-02-02T15:34:21.128Z,80
2017-02-02T15:35:31.807Z,76
2017-02-02T15:36:42.478Z,72
2017-02-02T15:37:52.757Z,64
2017-02-02T15:39:03.433Z,56
2017-02-02T15:40:13.334Z,52
2017-02-02T15:41:23.210Z,48
2017-02-02T15:42:33.489Z,40
2017-02-02T15:43:44.170Z,36
2017-02-02T15:44:54.857Z,28
2017-02-02T15:46:05.533Z,28
2017-02-02T15:47:15.416Z,24
2017-02-02T15:48:26.099Z,20
2017-02-02T15:49:36.394Z,16
2017-02-02T15:50:47.065Z,20
2017-02-02T15:51:57.339Z,16
2017-02-02T15:53:08.010Z,16
2017-02-02T15:54:18.684Z,12
2017-02-02T15:55:29.358Z,12
2017-02-02T15:56:39.241Z,8
2017-02-02T15:57:49.919Z,8
2017-02-02T15:59:00.200Z,8
2017-02-02T16:00:10.077Z,4
2017-02-02T16:01:20.765Z,4
2017-02-02T16:02:31.045Z,4
2017-02-02T16:03:41.720Z,4
2017-02-02T16:04:52.393Z,4
2017-02-02T16:06:02.669Z,4
2017-02-02T16:07:12.548Z,4
2017-02-02T16:08:23.229Z,4
2017-02-02T16:09:33.926Z,0
2017-02-02T16:10:44.603Z,0
2017-02-02T16:11:55.273Z,0
2017-02-02T16:13:05.156Z,0
2017-02-02T16:14:15.435Z,0
2017-02-02T16:15:26.105Z,0
2017-02-02T16:16:36.780Z,0
2017-02-02T16:17:47.454Z,0
2017-02-02T16:18:58.134Z,0
2017-02-02T16:20:08.812Z,0
2017-02-02T16:21:19.493Z,0
2017-02-02T16:22:30.166Z,0
2017-02-02T16:23:40.841Z,0
2017-02-02T16:24:51.588Z,0
2017-02-02T16:26:02.269Z,0
2017-02-02T16:27:12.558Z,0
2017-02-02T16:28:23.230Z,0
2017-02-02T16:29:33.904Z,0
2017-02-02T16:30:44.577Z,0
2017-02-02T16:31:55.252Z,0